Time;durP1;ratioP1;P1;durP2;ratioP2;P2;SDS_P1;SDS_P2;PMS_P1;PMS_P2;Temp;Humidity;BMP_temperature;BMP_pressure;BME280_temperature;BME280_humidity;BME280_pressure;Samples;Min_cycle;Max_cycle;Signal;HPM_P1;HPM_P2
2023/06/17 00:00:35;;;;;;;15.47;13.17;;;18.10;99.90;;;;;;4996044;28;20265;-80
2023/06/17 00:03:01;;;;;;;14.10;12.50;;;18.10;99.90;;;;;;4995898;28;20204;-79
2023/06/17 00:05:26;;;;;;;11.73;10.53;;;18.00;99.90;;;;;;4995340;28;20559;-79
2023/06/17 00:07:52;;;;;;;18.57;12.50;;;18.00;99.90;;;;;;4995793;28;20683;-82
2023/06/17 00:10:18;;;;;;;13.83;11.63;;;18.00;99.90;;;;;;4995937;28;20184;-81
2023/06/17 00:12:43;;;;;;;16.07;11.87;;;18.00;99.90;;;;;;4995799;28;20193;-79
2023/06/17 00:15:10;;;;;;;17.20;11.80;;;18.00;99.90;;;;;;4998078;28;20724;-80
2023/06/17 00:17:36;;;;;;;16.70;12.70;;;18.00;99.90;;;;;;5004281;28;20178;-79
2023/06/17 00:20:12;;;;;;;14.20;12.03;;;18.00;99.90;;;;;;4995315;28;20435;-79
2023/06/17 00:22:39;;;;;;;16.07;11.37;;;18.00;99.90;;;;;;4995745;28;20194;-79
2023/06/17 00:25:06;;;;;;;15.13;13.07;;;17.90;99.90;;;;;;4995640;28;20836;-81
2023/06/17 00:27:32;;;;;;;17.90;12.60;;;17.90;99.90;;;;;;4995440;28;20536;-79
2023/06/17 00:30:03;;;;;;;14.67;13.10;;;17.90;99.90;;;;;;5008803;28;20443;-79
2023/06/17 00:32:33;;;;;;;16.03;12.30;;;17.90;99.90;;;;;;5014478;28;20231;-81
2023/06/17 00:34:58;;;;;;;17.80;13.07;;;17.90;99.90;;;;;;5007580;28;20429;-80
2023/06/17 00:37:24;;;;;;;14.17;12.60;;;17.90;99.90;;;;;;5008277;28;20998;-80
2023/06/17 00:39:50;;;;;;;17.20;13.53;;;17.80;99.90;;;;;;4995507;28;20658;-80
2023/06/17 00:42:19;;;;;;;18.97;12.33;;;17.90;99.90;;;;;;4995182;28;20257;-79
2023/06/17 00:44:44;;;;;;;15.70;13.10;;;17.90;99.90;;;;;;4995189;28;20264;-80
2023/06/17 00:47:13;;;;;;;17.77;12.50;;;17.90;99.90;;;;;;4995146;28;20566;-82
2023/06/17 00:49:41;;;;;;;15.80;12.20;;;18.00;99.90;;;;;;4994865;28;20188;-82
2023/06/17 00:52:09;;;;;;;14.37;12.80;;;18.10;99.90;;;;;;4995084;28;20427;-81
2023/06/17 00:54:40;;;;;;;18.90;12.93;;;18.10;99.90;;;;;;4994974;28;20421;-80
2023/06/17 00:57:09;;;;;;;20.93;14.10;;;18.10;99.90;;;;;;4995041;28;20436;-81
2023/06/17 00:59:37;;;;;;;17.60;12.70;;;18.10;99.90;;;;;;4994918;28;20410;-79
2023/06/17 01:02:03;;;;;;;16.80;14.67;;;18.10;99.90;;;;;;4994883;28;20488;-79
2023/06/17 01:04:31;;;;;;;20.30;15.50;;;18.20;99.90;;;;;;4994831;28;20901;-81
2023/06/17 01:07:09;;;;;;;19.10;15.93;;;18.20;99.90;;;;;;4994555;28;20228;-81
2023/06/17 01:09:41;;;;;;;23.70;16.00;;;18.20;99.90;;;;;;4994887;28;20427;-79
2023/06/17 01:12:11;;;;;;;19.97;14.80;;;18.30;99.90;;;;;;4994683;28;20412;-79
2023/06/17 01:14:40;;;;;;;17.30;13.83;;;18.30;99.90;;;;;;4994705;28;20925;-79
2023/06/17 01:17:10;;;;;;;16.77;13.90;;;18.40;99.90;;;;;;4994421;28;20910;-80
2023/06/17 01:19:38;;;;;;;20.17;13.50;;;18.40;99.90;;;;;;4994170;28;20427;-80
2023/06/17 01:22:07;;;;;;;21.30;15.17;;;18.40;99.90;;;;;;4994456;28;20762;-80
2023/06/17 01:24:34;;;;;;;19.93;16.17;;;18.40;99.90;;;;;;4994464;28;20419;-80
2023/06/17 01:27:02;;;;;;;17.10;13.33;;;18.50;99.90;;;;;;4994349;28;20471;-80
2023/06/17 01:29:32;;;;;;;19.30;15.87;;;18.50;99.90;;;;;;4994441;28;20454;-79
2023/06/17 01:31:59;;;;;;;16.93;13.70;;;18.50;99.90;;;;;;4994163;28;20432;-80
2023/06/17 01:34:36;;;;;;;15.60;14.00;;;18.50;99.90;;;;;;4994024;28;20830;-80
2023/06/17 01:37:07;;;;;;;22.73;16.27;;;18.50;99.90;;;;;;4994337;28;20429;-79
2023/06/17 01:39:36;;;;;;;22.37;16.00;;;18.40;99.90;;;;;;4994153;28;20425;-80
2023/06/17 01:42:02;;;;;;;22.77;15.37;;;18.40;99.90;;;;;;4993979;28;20499;-80
2023/06/17 01:44:29;;;;;;;19.53;16.33;;;18.40;99.90;;;;;;4993379;28;20416;-80
2023/06/17 01:46:54;;;;;;;19.20;16.97;;;18.40;99.90;;;;;;4993992;28;20463;-80
2023/06/17 01:49:23;;;;;;;23.70;16.97;;;18.30;99.90;;;;;;4993738;28;20436;-80
2023/06/17 01:51:49;;;;;;;20.40;16.50;;;18.30;99.90;;;;;;4993998;28;20184;-79
2023/06/17 01:54:14;;;;;;;21.73;15.60;;;18.40;99.90;;;;;;4992593;28;20427;-80
2023/06/17 01:56:43;;;;;;;17.93;15.33;;;18.50;99.90;;;;;;4993925;28;20635;-79
2023/06/17 01:59:08;;;;;;;18.50;14.50;;;18.50;99.90;;;;;;4993877;28;20215;-80
2023/06/17 02:01:34;;;;;;;19.40;16.43;;;18.50;99.90;;;;;;4993840;28;20453;-80
2023/06/17 02:03:59;;;;;;;20.97;15.57;;;18.40;99.90;;;;;;4993331;28;20272;-80
2023/06/17 02:06:25;;;;;;;18.37;14.87;;;18.50;99.90;;;;;;4993511;28;20238;-79
2023/06/17 02:08:50;;;;;;;18.77;16.70;;;18.50;99.90;;;;;;4993693;28;20182;-79
2023/06/17 02:11:16;;;;;;;19.40;16.30;;;18.60;99.90;;;;;;4993734;28;20635;-80
2023/06/17 02:13:42;;;;;;;23.03;15.37;;;18.60;99.90;;;;;;4993731;28;20750;-80
2023/06/17 02:16:07;;;;;;;24.33;16.40;;;18.60;99.90;;;;;;4993591;28;20178;-79
2023/06/17 02:18:33;;;;;;;20.07;17.33;;;18.60;99.90;;;;;;4993236;28;20187;-80
2023/06/17 02:21:01;;;;;;;19.07;16.00;;;18.60;99.90;;;;;;4993561;28;20256;-79
2023/06/17 02:23:27;;;;;;;19.60;16.70;;;18.70;99.90;;;;;;4993517;28;20425;-80
2023/06/17 02:25:52;;;;;;;19.50;15.80;;;18.60;99.90;;;;;;4993652;28;20417;-81
2023/06/17 02:28:18;;;;;;;21.20;17.07;;;18.70;99.90;;;;;;4993403;28;20444;-79
2023/06/17 02:30:43;;;;;;;19.80;15.57;;;18.60;99.90;;;;;;4993413;28;20186;-80
2023/06/17 02:33:08;;;;;;;19.53;15.50;;;18.60;99.90;;;;;;4993389;28;20182;-79
2023/06/17 02:35:35;;;;;;;21.90;16.10;;;18.60;99.90;;;;;;4993078;28;20175;-80
2023/06/17 02:38:00;;;;;;;21.30;17.37;;;18.60;99.90;;;;;;4993179;28;20719;-79
2023/06/17 02:40:26;;;;;;;21.33;17.10;;;18.60;99.90;;;;;;4992027;28;20531;-80
2023/06/17 02:42:51;;;;;;;20.03;15.50;;;18.60;99.90;;;;;;4993406;28;20213;-80
2023/06/17 02:45:17;;;;;;;24.23;18.30;;;18.60;99.90;;;;;;4993386;28;20172;-79
2023/06/17 02:47:43;;;;;;;19.83;16.77;;;18.60;99.90;;;;;;4993358;28;20205;-79
2023/06/17 02:50:09;;;;;;;17.70;15.73;;;18.60;99.90;;;;;;4992983;28;20418;-79
2023/06/17 02:52:34;;;;;;;19.93;16.03;;;18.60;99.90;;;;;;4993332;28;20634;-79
2023/06/17 02:55:01;;;;;;;22.90;17.17;;;18.60;99.90;;;;;;4993499;28;20169;-80
2023/06/17 02:57:26;;;;;;;20.30;18.10;;;18.60;99.90;;;;;;4997136;28;20194;-80
2023/06/17 02:59:52;;;;;;;24.67;17.90;;;18.60;99.90;;;;;;4997155;28;20559;-81
2023/06/17 03:02:18;;;;;;;23.83;17.83;;;18.60;99.90;;;;;;4997133;28;20645;-81
2023/06/17 03:04:43;;;;;;;22.20;17.80;;;18.60;99.90;;;;;;4995608;28;20187;-80
2023/06/17 03:07:11;;;;;;;25.33;20.10;;;18.60;99.90;;;;;;4996776;28;20497;-80
2023/06/17 03:09:37;;;;;;;25.63;18.60;;;18.60;99.90;;;;;;4997172;28;20644;-81
2023/06/17 03:12:05;;;;;;;25.57;17.90;;;18.50;99.90;;;;;;5011872;28;20441;-80
2023/06/17 03:14:30;;;;;;;26.10;18.93;;;18.50;99.90;;;;;;4995637;28;20431;-81
2023/06/17 03:17:03;;;;;;;33.63;20.57;;;18.40;99.90;;;;;;5012020;28;20434;-80
2023/06/17 03:19:28;;;;;;;23.40;19.13;;;18.40;99.90;;;;;;4996523;28;20178;-80
2023/06/17 03:21:54;;;;;;;23.30;18.23;;;18.40;99.90;;;;;;4995306;28;20433;-80
2023/06/17 03:24:20;;;;;;;27.40;18.73;;;18.40;99.90;;;;;;4996836;28;20182;-82
2023/06/17 03:26:49;;;;;;;22.47;18.47;;;18.40;99.90;;;;;;4995443;28;20276;-81
2023/06/17 03:29:15;;;;;;;29.60;19.90;;;18.40;99.90;;;;;;5008734;28;20501;-81
2023/06/17 03:31:41;;;;;;;23.67;18.23;;;18.40;99.90;;;;;;5016132;28;20432;-80
2023/06/17 03:34:06;;;;;;;22.40;20.00;;;18.50;99.90;;;;;;5015774;28;20423;-82
2023/06/17 03:36:32;;;;;;;28.03;18.17;;;18.50;99.90;;;;;;5014831;28;20186;-81
2023/06/17 03:38:57;;;;;;;25.33;18.60;;;18.60;99.90;;;;;;5016119;28;20178;-81
2023/06/17 03:41:24;;;;;;;20.50;17.37;;;18.60;99.90;;;;;;5016035;28;20181;-80
2023/06/17 03:43:50;;;;;;;25.03;19.37;;;18.60;99.90;;;;;;5015918;28;20236;-80
2023/06/17 03:46:15;;;;;;;24.50;18.10;;;18.70;99.90;;;;;;5015641;28;21173;-80
2023/06/17 03:48:41;;;;;;;22.20;17.97;;;18.70;99.90;;;;;;5015504;28;20182;-81
2023/06/17 03:51:07;;;;;;;21.73;17.87;;;18.70;99.90;;;;;;5015620;28;20669;-80
2023/06/17 03:53:32;;;;;;;23.87;19.70;;;18.80;99.90;;;;;;5015902;28;20176;-80
2023/06/17 03:55:58;;;;;;;25.50;20.03;;;18.80;99.90;;;;;;5014673;28;20422;-80
2023/06/17 03:58:24;;;;;;;28.47;19.50;;;18.90;99.90;;;;;;5015642;28;20177;-80
2023/06/17 04:00:50;;;;;;;23.30;19.03;;;19.00;99.90;;;;;;5014385;28;20183;-79
2023/06/17 04:03:19;;;;;;;22.03;19.30;;;19.10;99.90;;;;;;5015306;28;20767;-79
2023/06/17 04:05:44;;;;;;;22.07;18.63;;;19.10;99.90;;;;;;5015343;28;20455;-80
2023/06/17 04:08:10;;;;;;;27.87;19.10;;;19.00;99.90;;;;;;5014299;28;20482;-79
2023/06/17 04:10:36;;;;;;;22.60;19.20;;;19.10;99.90;;;;;;5015613;28;20169;-80
2023/06/17 04:13:01;;;;;;;22.83;18.10;;;19.00;99.90;;;;;;5015457;28;20430;-80
2023/06/17 04:15:27;;;;;;;24.73;19.63;;;19.00;99.90;;;;;;5015367;28;20282;-79
2023/06/17 04:17:53;;;;;;;25.13;19.90;;;19.10;99.90;;;;;;5015111;28;20165;-79
2023/06/17 04:20:19;;;;;;;25.23;19.97;;;19.10;99.90;;;;;;5014895;28;20168;-79
2023/06/17 04:22:45;;;;;;;20.97;18.67;;;19.10;99.90;;;;;;5015309;28;20261;-80
2023/06/17 04:25:12;;;;;;;23.93;19.87;;;19.10;99.90;;;;;;5015240;28;20436;-79
2023/06/17 04:27:38;;;;;;;26.37;20.60;;;19.00;99.90;;;;;;5014919;28;20250;-80
2023/06/17 04:30:07;;;;;;;30.70;22.17;;;19.00;99.90;;;;;;5013717;28;20454;-80
2023/06/17 04:32:35;;;;;;;26.00;22.80;;;19.10;99.90;;;;;;5015100;28;20971;-80
2023/06/17 04:35:03;;;;;;;30.40;22.57;;;19.10;99.90;;;;;;5014591;28;20405;-80
2023/06/17 04:37:29;;;;;;;33.30;25.93;;;19.10;99.90;;;;;;5013751;28;20491;-80
2023/06/17 04:39:55;;;;;;;32.70;26.17;;;19.10;99.90;;;;;;5014779;28;20757;-80
2023/06/17 04:42:21;;;;;;;36.73;27.50;;;19.20;99.90;;;;;;5014729;28;20182;-80
2023/06/17 04:44:48;;;;;;;34.83;26.53;;;19.20;99.90;;;;;;5014754;28;20433;-80
2023/06/17 04:47:19;;;;;;;38.77;28.37;;;19.20;99.90;;;;;;5014691;28;20223;-80
2023/06/17 04:49:47;;;;;;;31.30;26.23;;;19.10;99.90;;;;;;5013025;28;20429;-80
2023/06/17 04:52:19;;;;;;;40.60;30.27;;;19.20;99.90;;;;;;5014581;28;20425;-80
2023/06/17 04:54:47;;;;;;;36.90;27.23;;;19.20;99.90;;;;;;5014645;28;20567;-79
2023/06/17 04:57:13;;;;;;;39.03;28.40;;;19.10;99.90;;;;;;5014502;28;20774;-79
2023/06/17 04:59:39;;;;;;;35.07;27.37;;;19.10;99.90;;;;;;5014455;28;20439;-79
2023/06/17 05:02:04;;;;;;;34.47;26.83;;;19.20;99.90;;;;;;5014428;28;20474;-80
2023/06/17 05:04:30;;;;;;;37.57;28.00;;;19.20;99.90;;;;;;5004260;28;20177;-80
2023/06/17 05:06:56;;;;;;;38.73;27.93;;;19.20;99.90;;;;;;5003669;28;20213;-80
2023/06/17 05:09:22;;;;;;;39.73;28.20;;;19.20;99.90;;;;;;5004448;28;20187;-82
2023/06/17 05:11:48;;;;;;;35.63;28.67;;;19.20;99.90;;;;;;5002253;28;20169;-81
2023/06/17 05:14:13;;;;;;;34.60;26.57;;;19.20;99.90;;;;;;5004386;28;20786;-81
2023/06/17 05:16:39;;;;;;;34.77;26.03;;;19.30;99.90;;;;;;5004155;28;20167;-81
2023/06/17 05:19:04;;;;;;;29.57;22.67;;;19.30;99.90;;;;;;5002727;28;20177;-81
2023/06/17 05:21:30;;;;;;;36.07;27.40;;;19.40;99.90;;;;;;5004854;28;20178;-82
2023/06/17 05:23:55;;;;;;;39.23;28.17;;;19.50;99.90;;;;;;5003472;28;20183;-81
2023/06/17 05:26:21;;;;;;;34.00;26.70;;;19.50;99.90;;;;;;5003410;28;20252;-81
2023/06/17 05:28:46;;;;;;;39.73;28.43;;;19.50;99.90;;;;;;5004835;28;20176;-82
2023/06/17 05:31:12;;;;;;;38.50;29.50;;;19.50;99.90;;;;;;5001608;28;20189;-81
2023/06/17 05:33:37;;;;;;;37.40;28.40;;;19.60;99.90;;;;;;5003336;28;20183;-81
2023/06/17 05:36:03;;;;;;;37.80;27.27;;;19.50;99.90;;;;;;5003002;28;20251;-81
2023/06/17 05:38:30;;;;;;;35.67;27.40;;;19.50;99.90;;;;;;5017692;28;20175;-81
2023/06/17 05:40:56;;;;;;;31.67;24.70;;;19.50;99.90;;;;;;5003992;28;20194;-81
2023/06/17 05:43:24;;;;;;;35.40;26.80;;;19.60;99.90;;;;;;5003985;28;20833;-81
2023/06/17 05:45:50;;;;;;;33.60;26.17;;;19.70;99.90;;;;;;5002496;28;20418;-80
2023/06/17 05:48:15;;;;;;;30.80;25.07;;;19.80;99.90;;;;;;5003380;28;20551;-80
2023/06/17 05:50:41;;;;;;;37.57;27.57;;;19.80;99.90;;;;;;5003719;28;20168;-81
2023/06/17 05:53:06;;;;;;;40.53;27.33;;;19.70;99.90;;;;;;4997185;28;20576;-82
2023/06/17 05:55:31;;;;;;;36.13;27.30;;;19.70;99.90;;;;;;4994000;28;20178;-82
2023/06/17 05:57:57;;;;;;;35.27;27.60;;;19.70;99.90;;;;;;4992746;28;20183;-80
2023/06/17 06:00:23;;;;;;;33.60;28.17;;;19.80;99.90;;;;;;4993997;28;20180;-81
2023/06/17 06:02:49;;;;;;;30.73;25.60;;;19.70;99.90;;;;;;4994005;28;20173;-81
2023/06/17 06:05:14;;;;;;;31.57;26.47;;;19.80;99.90;;;;;;4993335;28;20251;-80
2023/06/17 06:07:46;;;;;;;33.57;25.20;;;19.80;99.90;;;;;;4993863;28;20965;-80
2023/06/17 06:10:12;;;;;;;33.20;25.70;;;19.90;99.90;;;;;;4993975;28;20187;-80
2023/06/17 06:12:38;;;;;;;26.50;19.60;;;20.00;99.90;;;;;;4993829;28;20447;-81
2023/06/17 06:15:05;;;;;;;26.30;21.20;;;20.00;99.90;;;;;;4993820;28;20419;-80
2023/06/17 06:17:31;;;;;;;27.37;21.40;;;20.00;99.90;;;;;;4992424;28;20798;-81
2023/06/17 06:19:56;;;;;;;26.27;21.20;;;20.00;99.90;;;;;;4993480;28;20421;-81
2023/06/17 06:22:22;;;;;;;23.03;18.97;;;20.00;99.90;;;;;;4993676;28;20182;-81
2023/06/17 06:24:48;;;;;;;27.63;22.00;;;20.00;99.90;;;;;;4993676;28;20317;-81
2023/06/17 06:27:13;;;;;;;23.60;20.43;;;20.10;99.90;;;;;;4993582;28;20261;-82
2023/06/17 06:29:39;;;;;;;27.63;21.63;;;20.10;97.80;;;;;;4993440;28;20237;-81
2023/06/17 06:32:05;;;;;;;29.77;21.80;;;20.20;99.90;;;;;;4993423;28;20182;-81
2023/06/17 06:34:31;;;;;;;28.40;21.53;;;20.20;99.90;;;;;;4993232;28;20419;-81
2023/06/17 06:36:58;;;;;;;26.20;21.00;;;20.30;97.60;;;;;;4993485;28;20506;-81
2023/06/17 06:39:23;;;;;;;25.53;18.13;;;20.20;80.70;;;;;;4993559;28;20171;-80
2023/06/17 06:41:49;;;;;;;24.70;19.90;;;20.20;92.40;;;;;;4993516;28;20505;-80
2023/06/17 06:44:15;;;;;;;32.90;20.13;;;20.30;85.50;;;;;;4993496;28;20273;-80
2023/06/17 06:46:41;;;;;;;23.10;18.50;;;20.30;86.10;;;;;;4993445;28;20220;-79
2023/06/17 06:49:06;;;;;;;24.17;17.90;;;20.40;55.90;;;;;;4993066;28;20421;-80
2023/06/17 06:51:32;;;;;;;22.80;18.80;;;20.50;59.70;;;;;;4993380;28;20164;-80
2023/06/17 06:53:58;;;;;;;22.37;18.17;;;20.50;62.10;;;;;;4993376;28;20175;-80
2023/06/17 06:56:24;;;;;;;26.90;21.20;;;20.60;66.70;;;;;;4993414;28;20903;-80
2023/06/17 06:58:49;;;;;;;24.87;19.40;;;20.70;72.00;;;;;;4993387;28;20217;-79
2023/06/17 07:01:15;;;;;;;22.50;19.40;;;20.80;36.90;;;;;;4993318;28;20447;-79
2023/06/17 07:03:41;;;;;;;24.73;21.90;;;20.90;1.00;;;;;;4993742;28;20170;-80
2023/06/17 07:06:07;;;;;;;24.63;18.87;;;20.90;1.00;;;;;;5012572;28;20320;-80
2023/06/17 07:08:32;;;;;;;28.23;22.63;;;20.90;1.00;;;;;;5012880;28;20464;-80
2023/06/17 07:10:58;;;;;;;27.80;21.93;;;20.90;1.00;;;;;;5028050;28;20643;-79
2023/06/17 07:13:23;;;;;;;24.03;21.37;;;20.90;1.00;;;;;;5012796;28;20175;-79
2023/06/17 07:15:49;;;;;;;26.13;22.27;;;20.90;1.00;;;;;;5012883;28;20229;-80
2023/06/17 07:18:14;;;;;;;27.17;20.80;;;21.10;1.00;;;;;;5012422;28;20259;-80
2023/06/17 07:20:40;;;;;;;24.07;20.37;;;21.20;1.00;;;;;;5012696;28;20183;-81
2023/06/17 07:23:05;;;;;;;26.60;22.13;;;21.30;1.00;;;;;;5012661;28;20218;-80
2023/06/17 07:25:31;;;;;;;25.83;20.77;;;21.40;1.00;;;;;;5012725;28;20262;-80
2023/06/17 07:27:59;;;;;;;21.87;18.93;;;21.40;1.00;;;;;;5012647;28;20216;-80
2023/06/17 07:30:28;;;;;;;25.97;20.73;;;21.50;1.00;;;;;;5012738;28;20500;-80
2023/06/17 07:32:53;;;;;;;24.13;20.90;;;21.50;1.00;;;;;;5012240;28;20430;-80
2023/06/17 07:35:19;;;;;;;26.77;21.60;;;21.50;1.00;;;;;;5012589;28;20419;-80
2023/06/17 07:37:44;;;;;;;24.50;20.87;;;21.60;1.00;;;;;;5012553;28;20175;-79
2023/06/17 07:40:11;;;;;;;27.37;21.80;;;21.60;1.00;;;;;;5012568;28;20178;-79
2023/06/17 07:42:37;;;;;;;27.20;21.50;;;21.60;1.00;;;;;;5013553;28;20528;-79
2023/06/17 07:45:04;;;;;;;26.73;21.53;;;21.60;1.00;;;;;;5015998;28;20843;-80
2023/06/17 07:47:30;;;;;;;27.40;20.87;;;21.70;1.00;;;;;;5015814;28;20484;-79
2023/06/17 07:49:55;;;;;;;25.67;22.10;;;21.80;1.00;;;;;;5015596;28;20853;-79
2023/06/17 07:52:21;;;;;;;23.90;21.43;;;21.90;1.00;;;;;;5015801;28;20534;-80
2023/06/17 07:54:47;;;;;;;23.53;20.00;;;21.90;1.00;;;;;;5015818;28;20175;-80
2023/06/17 07:57:13;;;;;;;26.37;21.80;;;22.10;1.00;;;;;;5015710;28;20268;-80
2023/06/17 07:59:40;;;;;;;24.17;21.67;;;22.20;1.00;;;;;;5015818;28;20857;-80
2023/06/17 08:02:06;;;;;;;25.40;20.23;;;22.30;1.00;;;;;;5015674;28;20177;-79
2023/06/17 08:04:32;;;;;;;26.00;21.30;;;22.40;99.90;;;;;;5015169;28;20424;-80
2023/06/17 08:06:57;;;;;;;21.67;18.63;;;22.60;99.90;;;;;;5015244;28;20247;-79
2023/06/17 08:09:23;;;;;;;20.47;18.33;;;22.70;95.60;;;;;;5015507;28;20257;-80
2023/06/17 08:11:48;;;;;;;22.13;19.20;;;22.80;16.70;;;;;;5015531;28;20176;-80
2023/06/17 08:14:15;;;;;;;25.17;19.70;;;22.90;1.00;;;;;;5007497;28;20182;-78
2023/06/17 08:16:43;;;;;;;22.73;18.53;;;22.90;1.00;;;;;;5008858;28;20243;-78
2023/06/17 08:19:09;;;;;;;23.03;19.83;;;23.00;1.00;;;;;;5014337;28;20425;-80
2023/06/17 08:21:36;;;;;;;22.57;19.00;;;22.80;1.00;;;;;;5015004;28;20424;-80
2023/06/17 08:24:17;;;;;;;19.93;17.97;;;22.80;10.90;;;;;;5014909;28;20188;-80
2023/06/17 08:26:44;;;;;;;17.33;15.57;;;22.90;99.90;;;;;;5014669;28;20538;-80
2023/06/17 08:29:10;;;;;;;16.67;14.93;;;22.90;99.90;;;;;;5014684;28;20424;-80
2023/06/17 08:31:36;;;;;;;21.83;16.00;;;23.10;99.90;;;;;;5014362;28;20427;-80
2023/06/17 08:34:01;;;;;;;17.60;14.87;;;23.10;99.90;;;;;;5014235;28;20851;-80
2023/06/17 08:36:31;;;;;;;19.80;16.73;;;23.00;97.70;;;;;;5014437;28;20178;-81
2023/06/17 08:38:56;;;;;;;17.17;14.80;;;23.00;99.90;;;;;;5014326;28;20228;-80
2023/06/17 08:41:26;;;;;;;16.23;14.53;;;23.00;1.00;;;;;;5014478;28;20913;-79
2023/06/17 08:43:57;;;;;;;18.37;14.27;;;23.00;99.90;;;;;;5014546;28;20645;-81
2023/06/17 08:46:26;;;;;;;17.93;15.10;;;23.10;99.90;;;;;;5014553;28;20840;-81
2023/06/17 08:48:52;;;;;;;17.37;15.57;;;23.00;99.90;;;;;;5013995;28;20846;-80
2023/06/17 08:51:21;;;;;;;17.07;15.27;;;23.00;1.00;;;;;;5014277;28;20400;-80
2023/06/17 08:53:47;;;;;;;20.10;17.10;;;23.10;1.00;;;;;;5014038;28;20420;-80
2023/06/17 08:56:13;;;;;;;20.57;16.13;;;23.20;99.90;;;;;;5013121;28;20429;-79
2023/06/17 08:58:39;;;;;;;17.23;14.90;;;23.40;99.90;;;;;;5014281;28;20441;-80
2023/06/17 09:01:08;;;;;;;17.67;15.87;;;23.70;1.00;;;;;;5014047;28;20638;-80
2023/06/17 09:03:37;;;;;;;17.87;14.90;;;24.00;1.00;;;;;;5013900;28;20175;-80
2023/06/17 09:06:14;;;;;;;17.80;15.97;;;24.10;99.90;;;;;;5012730;28;20789;-81
2023/06/17 09:08:41;;;;;;;19.40;15.90;;;24.30;1.00;;;;;;5014206;28;20810;-80
2023/06/17 09:11:07;;;;;;;17.00;15.20;;;24.50;1.00;;;;;;5013955;28;20417;-81
2023/06/17 09:13:32;;;;;;;15.87;14.20;;;24.70;99.90;;;;;;5013997;28;20909;-80
2023/06/17 09:15:59;;;;;;;19.03;14.97;;;24.80;1.00;;;;;;5013937;28;20245;-81
2023/06/17 09:18:24;;;;;;;15.60;14.03;;;24.90;1.00;;;;;;5021670;28;20183;-80
2023/06/17 09:20:56;;;;;;;18.97;16.17;;;24.80;1.00;;;;;;5013135;28;20436;-80
2023/06/17 09:23:24;;;;;;;16.93;14.63;;;24.80;1.00;;;;;;5013778;28;20187;-80
2023/06/17 09:26:08;;;;;;;17.57;15.47;;;24.80;1.00;;;;;;5013722;28;20422;-80
2023/06/17 09:28:33;;;;;;;16.53;14.83;;;24.80;1.00;;;;;;5013723;28;20456;-81
2023/06/17 09:31:03;;;;;;;17.27;15.43;;;24.80;1.00;;;;;;5012307;28;20418;-81
2023/06/17 09:33:29;;;;;;;17.67;15.77;;;24.70;1.00;;;;;;5013448;28;20225;-81
2023/06/17 09:36:03;;;;;;;16.40;13.90;;;24.80;1.00;;;;;;5013360;28;20423;-81
2023/06/17 09:38:30;;;;;;;15.50;13.87;;;25.20;1.00;;;;;;5013560;28;20633;-81
2023/06/17 09:40:57;;;;;;;16.07;14.40;;;25.50;99.90;;;;;;5013133;28;20444;-81
2023/06/17 09:43:27;;;;;;;16.67;14.97;;;25.60;99.90;;;;;;5012275;28;20477;-81
2023/06/17 09:46:13;;;;;;;15.77;14.23;;;25.80;99.90;;;;;;5012939;28;20440;-80
2023/06/17 09:48:40;;;;;;;16.90;15.20;;;25.70;99.90;;;;;;5011919;28;20883;-80
2023/06/17 09:51:12;;;;;;;17.20;15.47;;;25.80;99.90;;;;;;5013213;28;20406;-80
2023/06/17 09:53:38;;;;;;;14.97;13.47;;;26.00;99.90;;;;;;5013389;28;20421;-81
2023/06/17 09:56:10;;;;;;;15.77;14.17;;;26.70;99.90;;;;;;5011987;28;20832;-80
2023/06/17 09:58:37;;;;;;;15.07;12.73;;;27.50;99.90;;;;;;5013051;28;20777;-81
2023/06/17 10:01:07;;;;;;;16.07;13.60;;;28.90;74.60;;;;;;5013098;28;20413;-81
2023/06/17 10:03:33;;;;;;;12.70;11.60;;;29.90;16.90;;;;;;5012802;28;20406;-81
2023/06/17 10:06:10;;;;;;;15.80;14.03;;;30.60;1.00;;;;;;5011151;28;20527;-80
2023/06/17 10:08:42;;;;;;;15.80;14.10;;;30.70;1.00;;;;;;5013382;28;20437;-81
2023/06/17 10:11:12;;;;;;;17.20;15.70;;;30.40;1.00;;;;;;5013350;28;20402;-81
2023/06/17 10:13:39;;;;;;;16.20;14.70;;;29.60;1.00;;;;;;5013200;28;20421;-81
2023/06/17 10:16:09;;;;;;;15.43;14.03;;;29.40;1.00;;;;;;5013196;28;20426;-81
2023/06/17 10:18:38;;;;;;;13.87;12.63;;;29.80;1.00;;;;;;5012855;28;20409;-81
2023/06/17 10:21:06;;;;;;;14.20;12.60;;;30.50;1.00;;;;;;5013299;28;20898;-81
2023/06/17 10:23:34;;;;;;;15.33;13.80;;;31.10;1.00;;;;;;5013087;28;20429;-79
2023/06/17 10:26:05;;;;;;;14.77;13.47;;;31.20;1.00;;;;;;5012976;28;20949;-78
2023/06/17 10:29:01;;;;;;;14.00;12.73;;;31.50;1.00;;;;;;5013050;28;20468;-79
2023/06/17 10:31:29;;;;;;;16.30;13.97;;;31.40;1.00;;;;;;5013098;28;20445;-79
2023/06/17 10:33:57;;;;;;;14.30;13.10;;;31.20;1.00;;;;;;5012512;28;20445;-78
2023/06/17 10:36:23;;;;;;;13.30;12.10;;;30.90;1.00;;;;;;5013036;28;20464;-81
2023/06/17 10:38:57;;;;;;;13.00;11.70;;;31.20;1.00;;;;;;5013140;28;20421;-81
2023/06/17 10:41:44;;;;;;;11.47;10.47;;;31.60;1.00;;;;;;5013082;28;20426;-79
2023/06/17 10:44:35;;;;;;;13.23;11.80;;;31.20;1.00;;;;;;5012861;28;20426;-81
2023/06/17 10:47:02;;;;;;;11.73;10.63;;;30.90;1.00;;;;;;5012833;28;20456;-82
2023/06/17 10:49:39;;;;;;;13.00;10.60;;;30.70;1.00;;;;;;5012660;28;20418;-81
2023/06/17 10:52:05;;;;;;;10.47;9.67;;;30.80;1.00;;;;;;5012726;28;20404;-81
2023/06/17 10:54:32;;;;;;;11.13;10.13;;;31.50;1.00;;;;;;5012780;28;20417;-82
2023/06/17 10:57:01;;;;;;;11.10;10.07;;;31.90;1.00;;;;;;5012856;28;20406;-82
2023/06/17 10:59:29;;;;;;;12.23;11.07;;;31.60;1.00;;;;;;5012503;28;20426;-81
2023/06/17 11:02:03;;;;;;;14.03;11.47;;;31.20;1.00;;;;;;5012774;28;20941;-81
2023/06/17 11:04:32;;;;;;;11.60;10.50;;;30.90;1.00;;;;;;5012767;28;20418;-81
2023/06/17 11:06:59;;;;;;;13.60;12.13;;;30.70;1.00;;;;;;5012499;28;20555;-82
2023/06/17 11:09:25;;;;;;;11.90;10.77;;;30.40;1.00;;;;;;5012731;28;20413;-82
2023/06/17 11:11:52;;;;;;;11.53;10.43;;;29.90;1.00;;;;;;5012698;28;20513;-82
2023/06/17 11:14:18;;;;;;;15.63;11.57;;;29.60;1.00;;;;;;5012543;28;20422;-81
2023/06/17 11:16:43;;;;;;;12.23;10.13;;;29.40;1.00;;;;;;5013936;28;20418;-81
2023/06/17 11:19:09;;;;;;;10.43;9.53;;;29.20;1.00;;;;;;5016061;28;20240;-81
2023/06/17 11:21:35;;;;;;;10.80;9.67;;;29.10;1.00;;;;;;5016365;28;20175;-82
2023/06/17 11:24:00;;;;;;;9.53;8.70;;;29.30;1.00;;;;;;5016262;28;20325;-81
2023/06/17 11:26:26;;;;;;;10.20;9.20;;;29.40;1.00;;;;;;5016243;28;20449;-82
2023/06/17 11:28:52;;;;;;;11.27;10.17;;;30.00;1.00;;;;;;5016247;28;20168;-82
2023/06/17 11:31:20;;;;;;;9.43;8.63;;;30.50;1.00;;;;;;5016070;28;20440;-82
2023/06/17 11:33:59;;;;;;;10.10;9.10;;;31.10;1.00;;;;;;5015659;28;20183;-82
2023/06/17 11:36:25;;;;;;;10.20;9.30;;;30.90;1.00;;;;;;5014486;28;20516;-83
2023/06/17 11:38:53;;;;;;;8.50;7.80;;;31.00;1.00;;;;;;5011398;28;20501;-82
2023/06/17 11:41:19;;;;;;;9.70;8.60;;;31.00;1.00;;;;;;5007266;28;20432;-82
2023/06/17 11:43:47;;;;;;;10.87;9.77;;;31.30;1.00;;;;;;5006144;28;20505;-83
2023/06/17 11:46:17;;;;;;;10.37;9.37;;;31.70;1.00;;;;;;5006334;28;20176;-83
2023/06/17 11:48:47;;;;;;;9.43;8.53;;;31.90;1.00;;;;;;5004300;28;20424;-82
2023/06/17 11:51:15;;;;;;;9.93;9.07;;;32.00;1.00;;;;;;5004825;28;20428;-82
2023/06/17 11:53:44;;;;;;;9.00;8.10;;;32.30;1.00;;;;;;5000877;28;20473;-81
2023/06/17 11:56:10;;;;;;;9.33;8.23;;;32.50;1.00;;;;;;4995878;28;20418;-82
2023/06/17 11:58:38;;;;;;;9.30;8.33;;;32.30;1.00;;;;;;4995795;28;20420;-83
2023/06/17 12:01:05;;;;;;;7.50;6.90;;;32.10;1.00;;;;;;4995996;28;20191;-81
2023/06/17 12:03:30;;;;;;;9.20;8.30;;;31.90;1.00;;;;;;4995680;28;20513;-82
2023/06/17 12:05:59;;;;;;;8.73;7.93;;;31.60;1.00;;;;;;4995572;28;20489;-82
2023/06/17 12:08:32;;;;;;;9.37;8.40;;;31.10;1.00;;;;;;5004656;28;20215;-81
2023/06/17 12:10:58;;;;;;;9.37;8.47;;;31.20;1.00;;;;;;5029042;28;20847;-79
2023/06/17 12:13:23;;;;;;;8.93;8.03;;;31.20;1.00;;;;;;5005522;28;20449;-79
2023/06/17 12:15:49;;;;;;;7.90;7.10;;;31.10;1.00;;;;;;5005188;28;20175;-79
2023/06/17 12:18:15;;;;;;;8.10;7.40;;;31.40;1.00;;;;;;5001204;28;21484;-79
2023/06/17 12:20:48;;;;;;;7.23;6.53;;;31.80;1.00;;;;;;5009395;28;20664;-79
2023/06/17 12:23:14;;;;;;;7.40;6.70;;;32.00;1.00;;;;;;5008142;28;20436;-81
2023/06/17 12:25:40;;;;;;;6.87;6.27;;;32.10;1.00;;;;;;5006949;28;20461;-81
2023/06/17 12:28:06;;;;;;;6.93;6.20;;;32.20;1.00;;;;;;5008633;28;20509;-81
2023/06/17 12:30:33;;;;;;;7.20;6.47;;;32.30;1.00;;;;;;5015017;28;20673;-81
2023/06/17 12:32:59;;;;;;;8.43;7.10;;;32.50;1.00;;;;;;5014670;28;20418;-81